createdAt,value
2022-08-23T00:03:36.639Z,22.8
2022-08-23T00:18:03.898Z,22.4
2022-08-23T00:32:28.419Z,22.2
2022-08-23T00:46:57.077Z,21.9
2022-08-23T01:01:25.503Z,21.8
2022-08-23T01:15:56.784Z,21.6
2022-08-23T01:30:28.041Z,21.6
2022-08-23T01:44:46.901Z,21.5
2022-08-23T01:59:14.864Z,21.3
2022-08-23T02:13:44.004Z,21.1
2022-08-23T02:28:12.863Z,21.1
2022-08-23T02:42:40.758Z,20.9
2022-08-23T02:57:09.229Z,20.8
2022-08-23T03:11:36.333Z,20.5
2022-08-23T03:26:06.052Z,20.6
2022-08-23T03:40:34.126Z,20.3
2022-08-23T03:55:02.129Z,20.2
2022-08-23T04:09:30.159Z,20.1
2022-08-23T04:23:57.126Z,20
2022-08-23T04:38:26.095Z,19.7
2022-08-23T04:52:55.236Z,19.9
2022-08-23T05:07:31.033Z,19.7
2022-08-23T05:21:59.087Z,19.7
2022-08-23T05:36:23.719Z,19.8
2022-08-23T05:50:50.875Z,20
2022-08-23T06:05:18.947Z,20.1
2022-08-23T06:19:48.476Z,20.3
2022-08-23T06:34:18.730Z,20.6
2022-08-23T06:48:40.399Z,20.9
2022-08-23T07:03:08.910Z,21.6
2022-08-23T07:17:39.800Z,22.1
2022-08-23T07:32:11.448Z,22.9
2022-08-23T07:46:47.430Z,27.3
2022-08-23T08:01:28.544Z,29.5
2022-08-23T08:16:00.447Z,31.9
2022-08-23T08:30:30.834Z,32.5
2022-08-23T08:44:57.377Z,33.1
2022-08-23T08:59:28.217Z,32.4
2022-08-23T09:14:00.597Z,33.9
2022-08-23T09:28:26.290Z,35
2022-08-23T09:42:41.453Z,31
2022-08-23T09:57:13.624Z,31
2022-08-23T10:11:44.186Z,30.7
2022-08-23T10:26:08.601Z,31.1
2022-08-23T10:40:36.469Z,31.2
2022-08-23T10:55:06.759Z,32.2
2022-08-23T11:09:34.322Z,32.5
2022-08-23T11:24:03.186Z,32.4
2022-08-23T11:38:31.711Z,32.3
2022-08-23T11:52:59.014Z,32.7
2022-08-23T12:07:27.085Z,32.2
2022-08-23T12:21:54.637Z,32.3
2022-08-23T12:36:23.392Z,33.4
2022-08-23T12:50:50.447Z,33
2022-08-23T13:05:17.065Z,32.9
2022-08-23T13:19:44.212Z,32.5
2022-08-23T13:34:13.255Z,33
2022-08-23T13:48:40.124Z,32.1
2022-08-23T14:03:06.023Z,33
2022-08-23T14:17:33.649Z,31.9
2022-08-23T14:32:01.195Z,32.4
2022-08-23T14:46:21.616Z,31.9
2022-08-23T15:00:48.668Z,31.8
2022-08-23T15:15:20.624Z,31.7
2022-08-23T15:29:46.161Z,31.4
2022-08-23T15:44:13.935Z,31.5
2022-08-23T15:58:42.989Z,31.8
2022-08-23T16:13:09.340Z,31.9
2022-08-23T16:27:41.390Z,31.8
2022-08-23T16:42:05.439Z,31.9
2022-08-23T16:56:33.354Z,31.6
2022-08-23T17:11:03.127Z,31.5
2022-08-23T17:25:27.492Z,31.4
2022-08-23T17:39:53.170Z,30.9
2022-08-23T17:54:24.549Z,30.5
2022-08-23T18:08:53.162Z,29.6
2022-08-23T18:23:15.880Z,28.9
2022-08-23T18:37:42.094Z,28.6
2022-08-23T18:52:09.188Z,28
2022-08-23T19:06:33.987Z,27
2022-08-23T19:21:02.178Z,26.8
2022-08-23T19:35:30.305Z,26.7
2022-08-23T19:50:03.703Z,26.3
2022-08-23T20:04:35.530Z,26.2
2022-08-23T20:18:56.603Z,26
2022-08-23T20:33:24.286Z,25.9
2022-08-23T20:47:50.611Z,25.1
2022-08-23T21:02:24.510Z,25
2022-08-23T21:16:51.072Z,24.7
2022-08-23T21:31:14.249Z,23.9
2022-08-23T21:45:43.365Z,24.6
2022-08-23T22:00:10.569Z,23.6
2022-08-23T22:14:36.092Z,23.2
2022-08-23T22:29:04.523Z,23.2
2022-08-23T22:43:32.642Z,23.9
2022-08-23T22:58:01.767Z,23.5
2022-08-23T23:12:34.815Z,23.4
2022-08-23T23:27:03.758Z,23.2
2022-08-23T23:41:27.095Z,22.4
2022-08-23T23:55:55.260Z,22.3
